FSIAVRMG

Guest
Details From FSIA - SEYCHELLES INTL
To VRMG - GAN ISLAND
Flight Number -
Tags generated
Created
Modified
Stats Distance 1,131 nm / 2,094 km
Max Altitude 35,000 ft / 10,668 m
Waypoints 7
Social Downloads 13
Likes 0
Share VATSIM

Download

Looking for another format? Having issues loading an existing format? Contact us
Advertisement - Login to hide

Notes

Basic altitude profile: - Ascent Rate: 2500ft/min - Ascent Speed: 250kts - Cruise Altitude: 35000ft - Cruise Speed: 420kts - Descent Rate: 1500ft/min - Descent Speed: 250kts Options: - Use NATs: yes - Use PACOTS: yes - Use low airways: yes - Use high airways: yes

Route

FSIA PRA UG465 OTKIR G465 MONTO 000N07000E VRMG

ID Type Via Altitude Latitude Longitude Leg Dist Tot Dist Heading (true) Name
O FSIA APT - 0 ft / 0 m -4.67438˚ 55.52183˚ - 0 nm - SEYCHELLES INTL
PRA VOR - 8,800 ft / 2,682 m -4.30737˚ 55.70707˚ 24 nm 24 nm 27° / 27° PRASLIN VOR-DME
ORLOM FIX UG465 (AWY-HI) 35,000 ft / 10,668 m -2.97667˚ 58.76833˚ 200 nm 224 nm 67° / 66° -
OTKIR FIX UG465 (AWY-HI) 35,000 ft / 10,668 m -2.43586˚ 60.00100˚ 80 nm 305 nm 66° / 66° -
MONTO FIX G465 (AWY-HI) 35,000 ft / 10,668 m 0.00233˚ 65.54867˚ 363 nm 669 nm 66° / 66° -
000N07000E LATLON - 35,000 ft / 10,668 m 0.00000˚ 70.00000˚ 267 nm 936 nm 90° / 90° -
O VRMG APT - 0 ft / 0 m -0.69334˚ 73.15565˚ 194 nm 1130 nm 102° / 102° GAN ISLAND

Altitude Profile

Advertisement - Login to hide

Weather


0- 5 10 15 20 25 30 35+ Temperature / ° C

Clouds and Precipitation
Forecast for 2017-12-18 18:00 UTC. Updated 2 hours ago

Ground ~20,000 ft ~40,000 ft Winds

FSIA

Details ICAO FSIA (SEZ)
Name SEYCHELLES INTL
Region Seychelles
Timezone Unknown (UTC+0.0)
Stats Elevation 10 ft / 3 m (AMSL)
Location -4.674378° 55.521829°
Runways 1
Magnetic Variation 5.043° W

METAR

FSIA 181700Z 27010KT 9999 FEW014CB SCT016 27/24 Q1013 NOSIG

Decode

TAF

TAF TAF FSIA 181107Z 1812/1912 26010KT 9999 FEW014CB SCT017 PROB40 TEMPO 1813/1824 -SHRA FEW013CB BKN016 TEMPO 1906/1912 -SHRA FEW013CB BKN015

Decode

Departure Runways

ID Width Length Bearing (true) Bearing (mag) Surface Threshold Offset Overrun Length
13 151 ft / 46 m 9,813 ft / 2,991 m 125.18° 130.22° Concrete 1,001 ft / 305 m 279 ft / 85 m
31 151 ft / 46 m 9,813 ft / 2,991 m 305.18° 310.22° Concrete 1,001 ft / 305 m 115 ft / 35 m

VRMG

Details ICAO VRMG (GAN)
Name GAN ISLAND
Region Maldives
Timezone Unknown (UTC+0.0)
Stats Elevation 6 ft / 2 m (AMSL)
Location -0.693340° 73.155646°
Runways 1
Magnetic Variation 4.132° W

METAR

Not found

TAF

TAF VRMG 181100Z 1812/1918 34006KT 9999 FEW018 TEMPO 1812//1818 5000 -TSRA SCT017CB

Decode

Destination Runways

ID Width Length Bearing (true) Bearing (mag) Surface Threshold Offset Overrun Length
10 148 ft / 45 m 8,719 ft / 2,658 m 98.70° 102.83° Concrete 298 ft / 91 m 0 ft / 0 m
28 148 ft / 45 m 8,719 ft / 2,658 m 278.70° 282.83° Concrete 298 ft / 91 m 0 ft / 0 m

Popular Alternatives